UAE656 OMDB-VRMM
Flight info
| Callsign | UAE656 |
|---|---|
| Flight time | 3h 34m |
| Altitude | 35000 |
| Route | ANVIX L223 TARDI N629 GIDAN P570 KITAL L894 BOLUR/N0493F370 L894 ELBET ELBET1B |
| Aircraft | B77W/H-SDE1E2E3FGHIJ2J3J4J5M1RWXY/LB1D1 |
Departure
| Time | 2026-05-04 21:38 |
|---|---|
| Airport | Dubai International Airport (OMDB) |
Arrival
| Time | 2026-05-05 01:13 |
|---|---|
| Airport | Velana International Airport (VRMM) |
| Time | Latitude | Longitude | Altitude | Speed | Heading |
|---|---|---|---|---|---|
| 2026-05-04 20:41 | 25.24213 | 55.37587 | 31 ft | 0 kts | 249° |
| 2026-05-04 21:30 | 25.24217 | 55.37600 | 32 ft | 4 kts | 249° |
| 2026-05-04 21:30 | 25.24227 | 55.37628 | 32 ft | 4 kts | 249° |
| 2026-05-04 21:31 | 25.24234 | 55.37676 | 26 ft | 4 kts | 294° |
| 2026-05-04 21:31 | 25.24221 | 55.37697 | 24 ft | 4 kts | 322° |
| 2026-05-04 21:31 | 25.24200 | 55.37710 | 25 ft | 4 kts | 347° |
| 2026-05-04 21:32 | 25.24179 | 55.37712 | 32 ft | 4 kts | 21° |
| 2026-05-04 21:32 | 25.24158 | 55.37698 | 32 ft | 4 kts | 32° |
| 2026-05-04 21:32 | 25.24143 | 55.37688 | 32 ft | 2 kts | 32° |
| 2026-05-04 21:34 | 25.24145 | 55.37690 | 32 ft | 2 kts | 32° |
| 2026-05-04 21:34 | 25.24179 | 55.37713 | 32 ft | 9 kts | 31° |
| 2026-05-04 21:34 | 25.24237 | 55.37751 | 27 ft | 10 kts | 31° |
| 2026-05-04 21:35 | 25.24295 | 55.37790 | 27 ft | 10 kts | 31° |
| 2026-05-04 21:35 | 25.24333 | 55.37816 | 28 ft | 10 kts | 32° |
| 2026-05-04 21:35 | 25.24406 | 55.37872 | 32 ft | 10 kts | 35° |
| 2026-05-04 21:35 | 25.24464 | 55.37916 | 35 ft | 12 kts | 34° |
| 2026-05-04 21:36 | 25.24555 | 55.37984 | 31 ft | 18 kts | 33° |
| 2026-05-04 21:36 | 25.24619 | 55.38031 | 30 ft | 15 kts | 33° |
| 2026-05-04 21:36 | 25.24698 | 55.38084 | 33 ft | 11 kts | 29° |
| 2026-05-04 21:36 | 25.24759 | 55.38105 | 35 ft | 8 kts | 345° |
| 2026-05-04 21:37 | 25.24783 | 55.38075 | 35 ft | 0 kts | 302° |
| 2026-05-04 21:37 | 25.24784 | 55.38074 | 35 ft | 0 kts | 302° |
| 2026-05-04 21:37 | 25.24852 | 55.37953 | 35 ft | 49 kts | 301° |
| 2026-05-04 21:37 | 25.25194 | 55.37328 | 37 ft | 142 kts | 301° |
| 2026-05-04 21:38 | 25.25832 | 55.36187 | 407 ft | 181 kts | 300° |
| 2026-05-04 21:38 | 25.26453 | 55.35044 | 1624 ft | 170 kts | 301° |
| 2026-05-04 21:38 | 25.27096 | 55.33866 | 2121 ft | 191 kts | 302° |
| 2026-05-04 21:38 | 25.27844 | 55.32560 | 2497 ft | 203 kts | 303° |
| 2026-05-04 21:39 | 25.28588 | 55.31237 | 3193 ft | 202 kts | 303° |
| 2026-05-04 21:39 | 25.29213 | 55.29849 | 3751 ft | 205 kts | 282° |
| 2026-05-04 21:39 | 25.29055 | 55.28296 | 4266 ft | 211 kts | 249° |
| 2026-05-04 21:39 | 25.28429 | 55.26810 | 4792 ft | 216 kts | 247° |
| 2026-05-04 21:40 | 25.27789 | 55.25298 | 5380 ft | 219 kts | 247° |
| 2026-05-04 21:40 | 25.27139 | 55.23766 | 5976 ft | 222 kts | 248° |
| 2026-05-04 21:40 | 25.26476 | 55.22209 | 6552 ft | 224 kts | 248° |
| 2026-05-04 21:40 | 25.25808 | 55.20640 | 6973 ft | 236 kts | 247° |
| 2026-05-04 21:41 | 25.25079 | 55.18922 | 7261 ft | 254 kts | 246° |
| 2026-05-04 21:41 | 25.23981 | 55.17354 | 7675 ft | 266 kts | 215° |
| 2026-05-04 21:41 | 25.22222 | 55.16651 | 8176 ft | 275 kts | 181° |
| 2026-05-04 21:41 | 25.20328 | 55.16776 | 8675 ft | 280 kts | 167° |
| 2026-05-04 21:42 | 25.18573 | 55.17682 | 9263 ft | 282 kts | 137° |
| 2026-05-04 21:42 | 25.17341 | 55.19411 | 9679 ft | 292 kts | 116° |
| 2026-05-04 21:42 | 25.16380 | 55.21430 | 10181 ft | 301 kts | 116° |
| 2026-05-04 21:42 | 25.15401 | 55.23506 | 10863 ft | 307 kts | 116° |
| 2026-05-04 21:43 | 25.14404 | 55.25605 | 11608 ft | 311 kts | 117° |
| 2026-05-04 21:43 | 25.13390 | 55.27730 | 12388 ft | 314 kts | 117° |
| 2026-05-04 21:43 | 25.12373 | 55.29854 | 13167 ft | 319 kts | 117° |
| 2026-05-04 21:43 | 25.11325 | 55.32033 | 13899 ft | 323 kts | 118° |
| 2026-05-04 21:44 | 25.10287 | 55.34255 | 14593 ft | 328 kts | 115° |
| 2026-05-04 21:44 | 25.09337 | 55.36560 | 15326 ft | 332 kts | 114° |
| 2026-05-04 21:44 | 25.08389 | 55.38914 | 16083 ft | 337 kts | 114° |
| 2026-05-04 21:44 | 25.07421 | 55.41294 | 16844 ft | 342 kts | 115° |
| 2026-05-04 21:45 | 25.06450 | 55.43746 | 17362 ft | 357 kts | 114° |
| 2026-05-04 21:45 | 25.05453 | 55.46353 | 17526 ft | 381 kts | 113° |
| 2026-05-04 21:45 | 25.04408 | 55.49098 | 17699 ft | 404 kts | 113° |
| 2026-05-04 21:45 | 25.03284 | 55.52031 | 17866 ft | 425 kts | 114° |
| 2026-05-04 21:46 | 25.02103 | 55.55090 | 18222 ft | 438 kts | 114° |
| 2026-05-04 21:46 | 25.00727 | 55.58114 | 18663 ft | 446 kts | 121° |
| 2026-05-04 21:46 | 24.99088 | 55.61052 | 19273 ft | 450 kts | 123° |
| 2026-05-04 21:46 | 24.97401 | 55.63963 | 19933 ft | 452 kts | 123° |
| 2026-05-04 21:47 | 24.95743 | 55.66929 | 20573 ft | 456 kts | 122° |
| 2026-05-04 21:47 | 24.94104 | 55.69941 | 21133 ft | 460 kts | 122° |
| 2026-05-04 21:47 | 24.92328 | 55.72900 | 21705 ft | 464 kts | 127° |
| 2026-05-04 21:47 | 24.90395 | 55.75765 | 22281 ft | 468 kts | 129° |
| 2026-05-04 21:48 | 24.88406 | 55.78629 | 22856 ft | 472 kts | 128° |
| 2026-05-04 21:48 | 24.86454 | 55.81495 | 23405 ft | 476 kts | 128° |
| 2026-05-04 21:48 | 24.84480 | 55.84457 | 23845 ft | 480 kts | 128° |
| 2026-05-04 21:48 | 24.82497 | 55.87437 | 24277 ft | 484 kts | 128° |
| 2026-05-04 21:49 | 24.80479 | 55.90433 | 24708 ft | 488 kts | 128° |
| 2026-05-04 21:49 | 24.78434 | 55.93447 | 25127 ft | 491 kts | 129° |
| 2026-05-04 21:49 | 24.76203 | 55.96231 | 25486 ft | 492 kts | 138° |
| 2026-05-04 21:49 | 24.73645 | 55.98755 | 25871 ft | 495 kts | 142° |
| 2026-05-04 21:50 | 24.71022 | 56.01253 | 26282 ft | 499 kts | 141° |
| 2026-05-04 21:50 | 24.68436 | 56.03831 | 26699 ft | 503 kts | 139° |
| 2026-05-04 21:50 | 24.65892 | 56.06443 | 27105 ft | 506 kts | 139° |
| 2026-05-04 21:50 | 24.63316 | 56.09104 | 27495 ft | 509 kts | 139° |
| 2026-05-04 21:51 | 24.60716 | 56.11776 | 27877 ft | 513 kts | 139° |
| 2026-05-04 21:51 | 24.58097 | 56.14468 | 28229 ft | 516 kts | 139° |
| 2026-05-04 21:51 | 24.55574 | 56.17327 | 28560 ft | 521 kts | 134° |
| 2026-05-04 21:51 | 24.53221 | 56.20320 | 28890 ft | 525 kts | 133° |
| 2026-05-04 21:52 | 24.50855 | 56.23382 | 29182 ft | 528 kts | 132° |
| 2026-05-04 21:52 | 24.48466 | 56.26476 | 29455 ft | 531 kts | 133° |
| 2026-05-04 21:52 | 24.46067 | 56.29565 | 29709 ft | 533 kts | 133° |
| 2026-05-04 21:52 | 24.43641 | 56.32666 | 30017 ft | 534 kts | 133° |
| 2026-05-04 21:53 | 24.41212 | 56.35755 | 30438 ft | 531 kts | 133° |
| 2026-05-04 21:53 | 24.38819 | 56.38791 | 30837 ft | 529 kts | 133° |
| 2026-05-04 21:53 | 24.36410 | 56.41846 | 31215 ft | 528 kts | 133° |
| 2026-05-04 21:53 | 24.34004 | 56.44897 | 31570 ft | 528 kts | 133° |
| 2026-05-04 21:54 | 24.31600 | 56.47944 | 31925 ft | 527 kts | 133° |
| 2026-05-04 21:54 | 24.29232 | 56.51034 | 32290 ft | 527 kts | 130° |
| 2026-05-04 21:54 | 24.27066 | 56.54225 | 32647 ft | 527 kts | 128° |
| 2026-05-04 21:54 | 24.24922 | 56.57482 | 33024 ft | 526 kts | 128° |
| 2026-05-04 21:55 | 24.22787 | 56.60752 | 33411 ft | 525 kts | 128° |
| 2026-05-04 21:55 | 24.20660 | 56.64000 | 33791 ft | 524 kts | 128° |
| 2026-05-04 21:55 | 24.18529 | 56.67233 | 34121 ft | 522 kts | 128° |
| 2026-05-04 21:55 | 24.16415 | 56.70420 | 34414 ft | 521 kts | 128° |
| 2026-05-04 21:56 | 24.14274 | 56.73638 | 34710 ft | 521 kts | 128° |
| 2026-05-04 21:56 | 24.12138 | 56.76843 | 35009 ft | 520 kts | 128° |
| 2026-05-04 21:56 | 24.10006 | 56.80040 | 35297 ft | 519 kts | 128° |
| 2026-05-04 21:56 | 24.07873 | 56.83241 | 35589 ft | 519 kts | 128° |
| 2026-05-04 21:57 | 24.05741 | 56.86438 | 35850 ft | 518 kts | 129° |
| 2026-05-04 21:57 | 24.03617 | 56.89621 | 36109 ft | 518 kts | 129° |
| 2026-05-04 21:57 | 24.01511 | 56.92761 | 36348 ft | 517 kts | 129° |
| 2026-05-04 21:57 | 23.99375 | 56.95938 | 36599 ft | 517 kts | 129° |
| 2026-05-04 21:58 | 23.97233 | 56.99117 | 36708 ft | 520 kts | 129° |
| 2026-05-04 21:58 | 23.92928 | 57.05511 | 36770 ft | 521 kts | 129° |
| 2026-05-04 21:59 | 23.88644 | 57.11872 | 36765 ft | 515 kts | 129° |
| 2026-05-04 21:59 | 23.84429 | 57.18138 | 36769 ft | 513 kts | 129° |
| 2026-05-04 22:00 | 23.80194 | 57.24434 | 36768 ft | 512 kts | 129° |
| 2026-05-04 22:00 | 23.75965 | 57.30715 | 36774 ft | 513 kts | 129° |
| 2026-05-04 22:01 | 23.71755 | 57.36954 | 36773 ft | 513 kts | 129° |
| 2026-05-04 22:01 | 23.67352 | 57.43113 | 36765 ft | 514 kts | 131° |
| 2026-05-04 22:02 | 23.62859 | 57.49212 | 36769 ft | 516 kts | 131° |
| 2026-05-04 22:02 | 23.58407 | 57.55310 | 36773 ft | 517 kts | 130° |
| 2026-05-04 22:03 | 23.53940 | 57.61466 | 36780 ft | 517 kts | 130° |
| 2026-05-04 22:03 | 23.49467 | 57.67620 | 36795 ft | 517 kts | 130° |
| 2026-05-04 22:04 | 23.44987 | 57.73749 | 36794 ft | 516 kts | 130° |
| 2026-05-04 22:04 | 23.40529 | 57.79822 | 36793 ft | 516 kts | 130° |
| 2026-05-04 22:05 | 23.36047 | 57.85927 | 36805 ft | 516 kts | 130° |
| 2026-05-04 22:05 | 23.31551 | 57.92047 | 36789 ft | 515 kts | 130° |
| 2026-05-04 22:06 | 23.27106 | 57.98094 | 36797 ft | 515 kts | 130° |
| 2026-05-04 22:06 | 23.22756 | 58.04301 | 36798 ft | 516 kts | 126° |
| 2026-05-04 22:07 | 23.18717 | 58.10755 | 36803 ft | 516 kts | 125° |
| 2026-05-04 22:07 | 23.14715 | 58.17173 | 36807 ft | 516 kts | 126° |
| 2026-05-04 22:08 | 23.10649 | 58.23620 | 36802 ft | 516 kts | 126° |
| 2026-05-04 22:08 | 23.06574 | 58.30058 | 36801 ft | 517 kts | 126° |
| 2026-05-04 22:09 | 23.02153 | 58.36185 | 36804 ft | 514 kts | 137° |
| 2026-05-04 22:09 | 22.96720 | 58.41110 | 36809 ft | 510 kts | 149° |
| 2026-05-04 22:10 | 22.90659 | 58.45093 | 36817 ft | 508 kts | 152° |
| 2026-05-04 22:10 | 22.84594 | 58.49008 | 36805 ft | 509 kts | 151° |
| 2026-05-04 22:11 | 22.78540 | 58.52994 | 36805 ft | 509 kts | 150° |
| 2026-05-04 22:11 | 22.72490 | 58.57005 | 36808 ft | 508 kts | 150° |
| 2026-05-04 22:12 | 22.66484 | 58.60974 | 36808 ft | 508 kts | 150° |
| 2026-05-04 22:12 | 22.60443 | 58.64959 | 36802 ft | 507 kts | 150° |
| 2026-05-04 22:13 | 22.54410 | 58.68938 | 36799 ft | 507 kts | 150° |
| 2026-05-04 22:13 | 22.48427 | 58.72881 | 36801 ft | 506 kts | 150° |
| 2026-05-04 22:14 | 22.42411 | 58.76842 | 36801 ft | 506 kts | 150° |
| 2026-05-04 22:14 | 22.36390 | 58.80802 | 36798 ft | 506 kts | 150° |
| 2026-05-04 22:15 | 22.30367 | 58.84760 | 36800 ft | 506 kts | 150° |
| 2026-05-04 22:15 | 22.24384 | 58.88687 | 36793 ft | 506 kts | 150° |
| 2026-05-04 22:16 | 22.18354 | 58.92637 | 36796 ft | 506 kts | 150° |
| 2026-05-04 22:16 | 22.12363 | 58.96553 | 36788 ft | 505 kts | 150° |
| 2026-05-04 22:17 | 22.06330 | 59.00495 | 36786 ft | 505 kts | 150° |
| 2026-05-04 22:17 | 22.00304 | 59.04429 | 36780 ft | 505 kts | 150° |
| 2026-05-04 22:18 | 21.94321 | 59.08332 | 36776 ft | 505 kts | 150° |
| 2026-05-04 22:18 | 21.88289 | 59.12263 | 36774 ft | 505 kts | 150° |
| 2026-05-04 22:19 | 21.82264 | 59.16185 | 36769 ft | 505 kts | 150° |
| 2026-05-04 22:19 | 21.76283 | 59.20075 | 36769 ft | 505 kts | 150° |
| 2026-05-04 22:20 | 21.70253 | 59.23993 | 36760 ft | 505 kts | 150° |
| 2026-05-04 22:20 | 21.64256 | 59.27887 | 36760 ft | 505 kts | 150° |
| 2026-05-04 22:21 | 21.58222 | 59.31800 | 36752 ft | 505 kts | 150° |
| 2026-05-04 22:21 | 21.53217 | 59.35048 | 36758 ft | 505 kts | 150° |
| 2026-05-04 22:22 | 21.46200 | 59.39600 | 36752 ft | 505 kts | 150° |
| 2026-05-04 22:22 | 21.41192 | 59.42845 | 36755 ft | 505 kts | 150° |
| 2026-05-04 22:23 | 21.35164 | 59.46749 | 36755 ft | 506 kts | 150° |
| 2026-05-04 22:23 | 21.29122 | 59.50658 | 36753 ft | 506 kts | 150° |
| 2026-05-04 22:24 | 21.23121 | 59.54535 | 36754 ft | 506 kts | 150° |
| 2026-05-04 22:24 | 21.17084 | 59.58435 | 36758 ft | 506 kts | 150° |
| 2026-05-04 22:25 | 21.11047 | 59.62332 | 36759 ft | 506 kts | 150° |
| 2026-05-04 22:25 | 21.05043 | 59.66206 | 36757 ft | 506 kts | 150° |
| 2026-05-04 22:26 | 20.99009 | 59.70093 | 36756 ft | 506 kts | 150° |
| 2026-05-04 22:26 | 20.92957 | 59.73975 | 36758 ft | 506 kts | 150° |
| 2026-05-04 22:27 | 20.86916 | 59.77843 | 36761 ft | 506 kts | 150° |
| 2026-05-04 22:27 | 20.80915 | 59.81685 | 36761 ft | 506 kts | 150° |
| 2026-05-04 22:28 | 20.74867 | 59.85554 | 36764 ft | 506 kts | 150° |
| 2026-05-04 22:28 | 20.68826 | 59.89416 | 36763 ft | 506 kts | 150° |
| 2026-05-04 22:29 | 20.62779 | 59.93277 | 36765 ft | 506 kts | 150° |
| 2026-05-04 22:29 | 20.56726 | 59.97139 | 36771 ft | 506 kts | 150° |
| 2026-05-04 22:30 | 20.50713 | 60.00972 | 36770 ft | 506 kts | 150° |
| 2026-05-04 22:30 | 20.44646 | 60.04836 | 36773 ft | 506 kts | 150° |
| 2026-05-04 22:31 | 20.38592 | 60.08688 | 36774 ft | 506 kts | 150° |
| 2026-05-04 22:31 | 20.32576 | 60.12512 | 36774 ft | 506 kts | 150° |
| 2026-05-04 22:32 | 20.26509 | 60.16365 | 36773 ft | 506 kts | 150° |
| 2026-05-04 22:32 | 20.20482 | 60.20189 | 36768 ft | 506 kts | 150° |
| 2026-05-04 22:33 | 20.14417 | 60.24035 | 36775 ft | 506 kts | 150° |
| 2026-05-04 22:33 | 20.08359 | 60.27872 | 36787 ft | 506 kts | 150° |
| 2026-05-04 22:34 | 20.02565 | 60.32163 | 36770 ft | 507 kts | 140° |
| 2026-05-04 22:34 | 19.97341 | 60.37160 | 36772 ft | 507 kts | 138° |
| 2026-05-04 22:35 | 19.92111 | 60.42222 | 36786 ft | 507 kts | 139° |
| 2026-05-04 22:35 | 19.86857 | 60.47254 | 36788 ft | 507 kts | 139° |
| 2026-05-04 22:36 | 19.81616 | 60.52232 | 36791 ft | 508 kts | 139° |
| 2026-05-04 22:36 | 19.76344 | 60.57227 | 36777 ft | 508 kts | 139° |
| 2026-05-04 22:37 | 19.71065 | 60.62226 | 36781 ft | 508 kts | 139° |
| 2026-05-04 22:37 | 19.65818 | 60.67193 | 36795 ft | 508 kts | 139° |
| 2026-05-04 22:38 | 19.60539 | 60.72186 | 36796 ft | 508 kts | 139° |
| 2026-05-04 22:38 | 19.55256 | 60.77179 | 36796 ft | 508 kts | 139° |
| 2026-05-04 22:39 | 19.49974 | 60.82165 | 36799 ft | 508 kts | 139° |
| 2026-05-04 22:39 | 19.44721 | 60.87120 | 36793 ft | 508 kts | 139° |
| 2026-05-04 22:40 | 19.39431 | 60.92105 | 36798 ft | 508 kts | 139° |
| 2026-05-04 22:40 | 19.34132 | 60.97094 | 36798 ft | 509 kts | 139° |
| 2026-05-04 22:41 | 19.28841 | 61.02072 | 36798 ft | 508 kts | 139° |
| 2026-05-04 22:41 | 19.23610 | 61.06989 | 36785 ft | 501 kts | 140° |
| 2026-05-04 22:42 | 19.18428 | 61.11855 | 36801 ft | 496 kts | 140° |
| 2026-05-04 22:42 | 19.13255 | 61.16707 | 36796 ft | 495 kts | 140° |
| 2026-05-04 22:43 | 19.08092 | 61.21546 | 36805 ft | 496 kts | 140° |
| 2026-05-04 22:43 | 19.02948 | 61.26363 | 36805 ft | 497 kts | 140° |
| 2026-05-04 22:44 | 18.97762 | 61.31216 | 36807 ft | 498 kts | 140° |
| 2026-05-04 22:44 | 18.92586 | 61.36055 | 36812 ft | 499 kts | 140° |
| 2026-05-04 22:45 | 18.87362 | 61.40935 | 36809 ft | 500 kts | 140° |
| 2026-05-04 22:45 | 18.79541 | 61.48233 | 36811 ft | 501 kts | 140° |
| 2026-05-04 22:46 | 18.74308 | 61.53111 | 36809 ft | 501 kts | 140° |
| 2026-05-04 22:46 | 18.69067 | 61.57992 | 36809 ft | 501 kts | 140° |
| 2026-05-04 22:47 | 18.63863 | 61.62835 | 36815 ft | 500 kts | 140° |
| 2026-05-04 22:47 | 18.58635 | 61.67695 | 36814 ft | 500 kts | 140° |
| 2026-05-04 22:48 | 18.53441 | 61.72520 | 36813 ft | 499 kts | 140° |
| 2026-05-04 22:48 | 18.48216 | 61.77370 | 36813 ft | 499 kts | 140° |
| 2026-05-04 22:49 | 18.43036 | 61.82173 | 36815 ft | 499 kts | 140° |
| 2026-05-04 22:49 | 18.37825 | 61.87001 | 36815 ft | 498 kts | 140° |
| 2026-05-04 22:50 | 18.32608 | 61.91831 | 36813 ft | 498 kts | 140° |
| 2026-05-04 22:50 | 18.27398 | 61.96650 | 36812 ft | 498 kts | 140° |
| 2026-05-04 22:51 | 18.22213 | 62.01443 | 36812 ft | 498 kts | 140° |
| 2026-05-04 22:51 | 18.17000 | 62.06257 | 36815 ft | 498 kts | 140° |
| 2026-05-04 22:52 | 18.11792 | 62.11063 | 36813 ft | 497 kts | 140° |
| 2026-05-04 22:52 | 18.06584 | 62.15864 | 36817 ft | 497 kts | 140° |
| 2026-05-04 22:53 | 18.01413 | 62.20629 | 36814 ft | 497 kts | 140° |
| 2026-05-04 22:53 | 17.96200 | 62.25426 | 36820 ft | 497 kts | 140° |
| 2026-05-04 22:54 | 17.91030 | 62.30181 | 36816 ft | 496 kts | 140° |
| 2026-05-04 22:54 | 17.85826 | 62.34964 | 36814 ft | 496 kts | 140° |
| 2026-05-04 22:55 | 17.80624 | 62.39740 | 36820 ft | 496 kts | 140° |
| 2026-05-04 22:55 | 17.75452 | 62.44486 | 36820 ft | 496 kts | 140° |
| 2026-05-04 22:56 | 17.70262 | 62.49243 | 36818 ft | 496 kts | 140° |
| 2026-05-04 22:56 | 17.65060 | 62.54009 | 36821 ft | 495 kts | 140° |
| 2026-05-04 22:57 | 17.59851 | 62.58778 | 36825 ft | 495 kts | 140° |
| 2026-05-04 22:57 | 17.54662 | 62.63523 | 36821 ft | 495 kts | 140° |
| 2026-05-04 22:58 | 17.49498 | 62.68242 | 36826 ft | 495 kts | 140° |
| 2026-05-04 22:58 | 17.44307 | 62.72982 | 36829 ft | 494 kts | 140° |
| 2026-05-04 22:59 | 17.39135 | 62.77701 | 36826 ft | 494 kts | 140° |
| 2026-05-04 22:59 | 17.33948 | 62.82431 | 36831 ft | 494 kts | 140° |
| 2026-05-04 23:00 | 17.28786 | 62.87133 | 36830 ft | 493 kts | 140° |
| 2026-05-04 23:00 | 17.23611 | 62.91844 | 36828 ft | 493 kts | 140° |
| 2026-05-04 23:01 | 17.18435 | 62.96553 | 36831 ft | 493 kts | 140° |
| 2026-05-04 23:01 | 17.13247 | 63.01269 | 36831 ft | 492 kts | 140° |
| 2026-05-04 23:02 | 17.08105 | 63.05940 | 36831 ft | 492 kts | 140° |
| 2026-05-04 23:02 | 17.02924 | 63.10643 | 36838 ft | 492 kts | 140° |
| 2026-05-04 23:03 | 16.97722 | 63.15294 | 36839 ft | 491 kts | 141° |
| 2026-05-04 23:03 | 16.92474 | 63.19827 | 36841 ft | 491 kts | 141° |
| 2026-05-04 23:04 | 16.87195 | 63.24370 | 36840 ft | 491 kts | 141° |
| 2026-05-04 23:04 | 16.81960 | 63.28890 | 36842 ft | 490 kts | 141° |
| 2026-05-04 23:05 | 16.76700 | 63.33443 | 36838 ft | 490 kts | 141° |
| 2026-05-04 23:05 | 16.71476 | 63.37964 | 36842 ft | 490 kts | 141° |
| 2026-05-04 23:06 | 16.66221 | 63.42508 | 36839 ft | 489 kts | 141° |
| 2026-05-04 23:06 | 16.61002 | 63.47017 | 36843 ft | 489 kts | 141° |
| 2026-05-04 23:07 | 16.55759 | 63.51542 | 36839 ft | 488 kts | 141° |
| 2026-05-04 23:07 | 16.50521 | 63.56060 | 36840 ft | 488 kts | 141° |
| 2026-05-04 23:08 | 16.45308 | 63.60555 | 36837 ft | 488 kts | 141° |
| 2026-05-04 23:08 | 16.40079 | 63.65057 | 36841 ft | 487 kts | 141° |
| 2026-05-04 23:09 | 16.34868 | 63.69543 | 36845 ft | 487 kts | 141° |
| 2026-05-04 23:09 | 16.29645 | 63.74035 | 36847 ft | 486 kts | 141° |
| 2026-05-04 23:10 | 16.25300 | 63.77770 | 36840 ft | 486 kts | 141° |
| 2026-05-04 23:10 | 16.20072 | 63.82261 | 36845 ft | 486 kts | 141° |
| 2026-05-04 23:11 | 16.14853 | 63.86741 | 36844 ft | 486 kts | 141° |
| 2026-05-04 23:11 | 16.09658 | 63.91197 | 36846 ft | 486 kts | 141° |
| 2026-05-04 23:12 | 16.04430 | 63.95678 | 36846 ft | 485 kts | 141° |
| 2026-05-04 23:12 | 15.99246 | 64.00119 | 36842 ft | 485 kts | 141° |
| 2026-05-04 23:13 | 15.94032 | 64.04582 | 36844 ft | 485 kts | 141° |
| 2026-05-04 23:13 | 15.88815 | 64.09045 | 36839 ft | 484 kts | 141° |
| 2026-05-04 23:14 | 15.83639 | 64.13469 | 36844 ft | 484 kts | 141° |
| 2026-05-04 23:14 | 15.78422 | 64.17926 | 36848 ft | 484 kts | 141° |
| 2026-05-04 23:15 | 15.73247 | 64.22343 | 36853 ft | 484 kts | 141° |
| 2026-05-04 23:15 | 15.68045 | 64.26781 | 36849 ft | 483 kts | 141° |
| 2026-05-04 23:16 | 15.62839 | 64.31218 | 36852 ft | 483 kts | 141° |
| 2026-05-04 23:16 | 15.57635 | 64.35651 | 36848 ft | 483 kts | 141° |
| 2026-05-04 23:17 | 15.52476 | 64.40044 | 36851 ft | 483 kts | 141° |
| 2026-05-04 23:17 | 15.47276 | 64.44467 | 36851 ft | 483 kts | 141° |
| 2026-05-04 23:18 | 15.42075 | 64.48889 | 36853 ft | 482 kts | 141° |
| 2026-05-04 23:18 | 15.36915 | 64.53272 | 36855 ft | 482 kts | 141° |
| 2026-05-04 23:19 | 15.31719 | 64.57685 | 36853 ft | 481 kts | 141° |
| 2026-05-04 23:19 | 15.26554 | 64.62067 | 36853 ft | 481 kts | 141° |
| 2026-05-04 23:20 | 15.21373 | 64.66460 | 36852 ft | 481 kts | 141° |
| 2026-05-04 23:20 | 15.16192 | 64.70851 | 36852 ft | 480 kts | 141° |
| 2026-05-04 23:21 | 15.11051 | 64.75204 | 36853 ft | 480 kts | 141° |
| 2026-05-04 23:21 | 15.05880 | 64.79580 | 36853 ft | 480 kts | 141° |
| 2026-05-04 23:22 | 15.00703 | 64.83959 | 36852 ft | 479 kts | 141° |
| 2026-05-04 23:22 | 14.95533 | 64.88328 | 36853 ft | 479 kts | 141° |
| 2026-05-04 23:23 | 14.90394 | 64.92668 | 36851 ft | 479 kts | 140° |
| 2026-05-04 23:23 | 14.85220 | 64.97036 | 36852 ft | 480 kts | 140° |
| 2026-05-04 23:24 | 14.80038 | 65.01408 | 36845 ft | 480 kts | 140° |
| 2026-05-04 23:24 | 14.74888 | 65.05750 | 36849 ft | 480 kts | 140° |
| 2026-05-04 23:25 | 14.69703 | 65.10119 | 36849 ft | 480 kts | 140° |
| 2026-05-04 23:25 | 14.64513 | 65.14490 | 36845 ft | 480 kts | 140° |
| 2026-05-04 23:26 | 14.59321 | 65.18860 | 36848 ft | 481 kts | 140° |
| 2026-05-04 23:26 | 14.54170 | 65.23189 | 36847 ft | 481 kts | 140° |
| 2026-05-04 23:27 | 14.48961 | 65.27563 | 36848 ft | 481 kts | 140° |
| 2026-05-04 23:27 | 14.43770 | 65.31921 | 36849 ft | 481 kts | 140° |
| 2026-05-04 23:28 | 14.38604 | 65.36257 | 36847 ft | 481 kts | 140° |
| 2026-05-04 23:28 | 14.33405 | 65.40618 | 36844 ft | 481 kts | 140° |
| 2026-05-04 23:29 | 14.28240 | 65.44948 | 36846 ft | 481 kts | 140° |
| 2026-05-04 23:29 | 14.23042 | 65.49303 | 36849 ft | 481 kts | 140° |
| 2026-05-04 23:30 | 14.17847 | 65.53652 | 36849 ft | 481 kts | 140° |
| 2026-05-04 23:30 | 14.12645 | 65.58005 | 36851 ft | 481 kts | 140° |
| 2026-05-04 23:31 | 14.07475 | 65.62328 | 36849 ft | 481 kts | 140° |
| 2026-05-04 23:31 | 14.02260 | 65.66686 | 36850 ft | 481 kts | 140° |
| 2026-05-04 23:32 | 13.97048 | 65.71039 | 36851 ft | 482 kts | 140° |
| 2026-05-04 23:32 | 13.91864 | 65.75366 | 36849 ft | 482 kts | 141° |
| 2026-05-04 23:33 | 13.86647 | 65.79719 | 36847 ft | 482 kts | 141° |
| 2026-05-04 23:33 | 13.81457 | 65.84045 | 36847 ft | 482 kts | 141° |
| 2026-05-04 23:34 | 13.76239 | 65.88393 | 36842 ft | 482 kts | 141° |
| 2026-05-04 23:34 | 13.71010 | 65.92747 | 36845 ft | 483 kts | 141° |
| 2026-05-04 23:35 | 13.65818 | 65.97068 | 36848 ft | 483 kts | 141° |
| 2026-05-04 23:35 | 13.60579 | 66.01426 | 36848 ft | 483 kts | 141° |
| 2026-05-04 23:36 | 13.55363 | 66.05761 | 36845 ft | 483 kts | 141° |
| 2026-05-04 23:36 | 13.50130 | 66.10110 | 36846 ft | 483 kts | 141° |
| 2026-05-04 23:37 | 13.44924 | 66.14432 | 36847 ft | 483 kts | 141° |
| 2026-05-04 23:37 | 13.39687 | 66.18778 | 36847 ft | 483 kts | 141° |
| 2026-05-04 23:38 | 13.34449 | 66.23122 | 36846 ft | 483 kts | 141° |
| 2026-05-04 23:38 | 13.29237 | 66.27442 | 36847 ft | 483 kts | 141° |
| 2026-05-04 23:39 | 13.23993 | 66.31786 | 36846 ft | 483 kts | 141° |
| 2026-05-04 23:39 | 13.18749 | 66.36128 | 36852 ft | 484 kts | 141° |
| 2026-05-04 23:40 | 13.13533 | 66.40444 | 36854 ft | 484 kts | 141° |
| 2026-05-04 23:40 | 13.08274 | 66.44793 | 36851 ft | 484 kts | 141° |
| 2026-05-04 23:41 | 13.03020 | 66.49135 | 36850 ft | 484 kts | 141° |
| 2026-05-04 23:41 | 12.97807 | 66.53441 | 36852 ft | 484 kts | 141° |
| 2026-05-04 23:42 | 12.92549 | 66.57782 | 36852 ft | 484 kts | 141° |
| 2026-05-04 23:42 | 12.87292 | 66.62120 | 36850 ft | 484 kts | 141° |
| 2026-05-04 23:43 | 12.82058 | 66.66436 | 36852 ft | 485 kts | 141° |
| 2026-05-04 23:43 | 12.76791 | 66.70777 | 36854 ft | 485 kts | 141° |
| 2026-05-04 23:44 | 12.71535 | 66.75107 | 36852 ft | 485 kts | 141° |
| 2026-05-04 23:44 | 12.66304 | 66.79414 | 36854 ft | 485 kts | 141° |
| 2026-05-04 23:45 | 12.61029 | 66.83755 | 36852 ft | 485 kts | 141° |
| 2026-05-04 23:45 | 12.55793 | 66.88061 | 36850 ft | 485 kts | 141° |
| 2026-05-04 23:46 | 12.50521 | 66.92395 | 36848 ft | 485 kts | 141° |
| 2026-05-04 23:46 | 12.45244 | 66.96730 | 36850 ft | 485 kts | 141° |
| 2026-05-04 23:47 | 12.40003 | 67.01033 | 36854 ft | 485 kts | 141° |
| 2026-05-04 23:47 | 12.34721 | 67.05368 | 36852 ft | 486 kts | 141° |
| 2026-05-04 23:48 | 12.29443 | 67.09698 | 36851 ft | 486 kts | 141° |
| 2026-05-04 23:48 | 12.24196 | 67.13999 | 36855 ft | 486 kts | 141° |
| 2026-05-04 23:49 | 12.18905 | 67.18335 | 36852 ft | 486 kts | 141° |
| 2026-05-04 23:49 | 12.13615 | 67.22667 | 36856 ft | 487 kts | 141° |
| 2026-05-04 23:50 | 12.08347 | 67.26980 | 36857 ft | 487 kts | 141° |
| 2026-05-04 23:50 | 12.03038 | 67.31324 | 36858 ft | 487 kts | 141° |
| 2026-05-04 23:51 | 11.97772 | 67.35631 | 36855 ft | 488 kts | 141° |
| 2026-05-04 23:51 | 11.92459 | 67.39972 | 36854 ft | 488 kts | 141° |
| 2026-05-04 23:52 | 11.87144 | 67.44311 | 36853 ft | 488 kts | 141° |
| 2026-05-04 23:52 | 11.81867 | 67.48618 | 36853 ft | 488 kts | 141° |
| 2026-05-04 23:53 | 11.76552 | 67.52955 | 36857 ft | 489 kts | 141° |
| 2026-05-04 23:53 | 11.71217 | 67.57307 | 36857 ft | 489 kts | 141° |
| 2026-05-04 23:54 | 11.65918 | 67.61627 | 36856 ft | 489 kts | 141° |
| 2026-05-04 23:54 | 11.60601 | 67.65959 | 36853 ft | 489 kts | 141° |
| 2026-05-04 23:55 | 11.55271 | 67.70300 | 36856 ft | 490 kts | 141° |
| 2026-05-04 23:56 | 11.47302 | 67.76786 | 36857 ft | 490 kts | 141° |
| 2026-05-04 23:56 | 11.42867 | 67.80394 | 36851 ft | 490 kts | 141° |
| 2026-05-04 23:57 | 11.37526 | 67.84736 | 36857 ft | 490 kts | 141° |
| 2026-05-04 23:57 | 11.32221 | 67.89048 | 36855 ft | 490 kts | 141° |
| 2026-05-04 23:58 | 11.26880 | 67.93387 | 36851 ft | 490 kts | 141° |
| 2026-05-04 23:58 | 11.21543 | 67.97719 | 36854 ft | 490 kts | 141° |
| 2026-05-04 23:59 | 11.16239 | 68.02023 | 36856 ft | 490 kts | 141° |
| 2026-05-04 23:59 | 11.10903 | 68.06351 | 36856 ft | 490 kts | 141° |
| 2026-05-05 00:00 | 11.05565 | 68.10679 | 36855 ft | 490 kts | 141° |
| 2026-05-05 00:00 | 11.00228 | 68.15004 | 36854 ft | 490 kts | 141° |
| 2026-05-05 00:01 | 10.94924 | 68.19300 | 36856 ft | 489 kts | 141° |
| 2026-05-05 00:01 | 10.89585 | 68.23621 | 36852 ft | 489 kts | 141° |
| 2026-05-05 00:02 | 10.84275 | 68.27919 | 36853 ft | 489 kts | 141° |
| 2026-05-05 00:02 | 10.78939 | 68.32234 | 36855 ft | 489 kts | 141° |
| 2026-05-05 00:03 | 10.73637 | 68.36520 | 36857 ft | 489 kts | 141° |
| 2026-05-05 00:03 | 10.68305 | 68.40829 | 36869 ft | 489 kts | 141° |
| 2026-05-05 00:04 | 10.62983 | 68.45127 | 36858 ft | 489 kts | 141° |
| 2026-05-05 00:04 | 10.57673 | 68.49413 | 36858 ft | 489 kts | 141° |
| 2026-05-05 00:05 | 10.52340 | 68.53717 | 36858 ft | 488 kts | 141° |
| 2026-05-05 00:05 | 10.47008 | 68.58017 | 36855 ft | 488 kts | 141° |
| 2026-05-05 00:06 | 10.41708 | 68.62291 | 36858 ft | 488 kts | 141° |
| 2026-05-05 00:06 | 10.36379 | 68.66585 | 36856 ft | 488 kts | 141° |
| 2026-05-05 00:07 | 10.31081 | 68.70852 | 36858 ft | 488 kts | 141° |
| 2026-05-05 00:07 | 10.25751 | 68.75144 | 36856 ft | 488 kts | 141° |
| 2026-05-05 00:08 | 10.20437 | 68.79420 | 36859 ft | 488 kts | 141° |
| 2026-05-05 00:08 | 10.15100 | 68.83713 | 36858 ft | 488 kts | 141° |
| 2026-05-05 00:09 | 10.09809 | 68.87968 | 36856 ft | 488 kts | 141° |
| 2026-05-05 00:09 | 10.04479 | 68.92252 | 36860 ft | 488 kts | 141° |
| 2026-05-05 00:10 | 9.99140 | 68.96541 | 36859 ft | 488 kts | 141° |
| 2026-05-05 00:10 | 9.93849 | 69.00791 | 36859 ft | 488 kts | 141° |
| 2026-05-05 00:11 | 9.88523 | 69.05066 | 36858 ft | 488 kts | 141° |
| 2026-05-05 00:11 | 9.83183 | 69.09352 | 36859 ft | 488 kts | 141° |
| 2026-05-05 00:12 | 9.77886 | 69.13602 | 36861 ft | 488 kts | 141° |
| 2026-05-05 00:12 | 9.72556 | 69.17874 | 36858 ft | 488 kts | 141° |
| 2026-05-05 00:13 | 9.67214 | 69.22149 | 36860 ft | 488 kts | 141° |
| 2026-05-05 00:13 | 9.61913 | 69.26390 | 36856 ft | 488 kts | 141° |
| 2026-05-05 00:14 | 9.56568 | 69.30665 | 36855 ft | 487 kts | 141° |
| 2026-05-05 00:14 | 9.51277 | 69.34897 | 36858 ft | 487 kts | 141° |
| 2026-05-05 00:15 | 9.45950 | 69.39155 | 36860 ft | 486 kts | 141° |
| 2026-05-05 00:15 | 9.40637 | 69.43402 | 36857 ft | 486 kts | 141° |
| 2026-05-05 00:16 | 9.35324 | 69.47645 | 36855 ft | 485 kts | 141° |
| 2026-05-05 00:16 | 9.30054 | 69.51853 | 36859 ft | 485 kts | 141° |
| 2026-05-05 00:17 | 9.24745 | 69.56091 | 36854 ft | 485 kts | 141° |
| 2026-05-05 00:17 | 9.19472 | 69.60297 | 36858 ft | 484 kts | 141° |
| 2026-05-05 00:18 | 9.14176 | 69.64522 | 36857 ft | 484 kts | 141° |
| 2026-05-05 00:18 | 9.08877 | 69.68746 | 36856 ft | 484 kts | 141° |
| 2026-05-05 00:19 | 9.03612 | 69.72942 | 36855 ft | 483 kts | 141° |
| 2026-05-05 00:19 | 8.98319 | 69.77158 | 36855 ft | 483 kts | 141° |
| 2026-05-05 00:20 | 8.93033 | 69.81368 | 36856 ft | 483 kts | 141° |
| 2026-05-05 00:20 | 8.87782 | 69.85548 | 36858 ft | 483 kts | 141° |
| 2026-05-05 00:21 | 8.82495 | 69.89755 | 36855 ft | 482 kts | 141° |
| 2026-05-05 00:21 | 8.77202 | 69.93965 | 36857 ft | 482 kts | 141° |
| 2026-05-05 00:22 | 8.71947 | 69.98143 | 36855 ft | 482 kts | 141° |
| 2026-05-05 00:22 | 8.66663 | 70.02342 | 36855 ft | 482 kts | 141° |
| 2026-05-05 00:23 | 8.61416 | 70.06512 | 36851 ft | 482 kts | 141° |
| 2026-05-05 00:23 | 8.56169 | 70.10679 | 36853 ft | 481 kts | 141° |
| 2026-05-05 00:24 | 8.50893 | 70.14868 | 36850 ft | 481 kts | 141° |
| 2026-05-05 00:24 | 8.45609 | 70.19061 | 36850 ft | 481 kts | 141° |
| 2026-05-05 00:25 | 8.40366 | 70.23221 | 36850 ft | 481 kts | 141° |
| 2026-05-05 00:25 | 8.35083 | 70.27411 | 36852 ft | 482 kts | 141° |
| 2026-05-05 00:26 | 8.29843 | 70.31566 | 36852 ft | 482 kts | 142° |
| 2026-05-05 00:26 | 8.24571 | 70.35744 | 36853 ft | 482 kts | 142° |
| 2026-05-05 00:27 | 8.19291 | 70.39927 | 36847 ft | 482 kts | 142° |
| 2026-05-05 00:27 | 8.14037 | 70.44088 | 36854 ft | 482 kts | 142° |
| 2026-05-05 00:28 | 8.08745 | 70.48278 | 36852 ft | 481 kts | 142° |
| 2026-05-05 00:28 | 8.03465 | 70.52457 | 36852 ft | 481 kts | 142° |
| 2026-05-05 00:29 | 7.98222 | 70.56605 | 36852 ft | 481 kts | 142° |
| 2026-05-05 00:29 | 7.92936 | 70.60786 | 36848 ft | 481 kts | 142° |
| 2026-05-05 00:30 | 7.87654 | 70.64962 | 36847 ft | 482 kts | 142° |
| 2026-05-05 00:30 | 7.82407 | 70.69110 | 36853 ft | 482 kts | 142° |
| 2026-05-05 00:31 | 7.77123 | 70.73285 | 36850 ft | 482 kts | 142° |
| 2026-05-05 00:31 | 7.71841 | 70.77457 | 36852 ft | 482 kts | 142° |
| 2026-05-05 00:32 | 7.66591 | 70.81604 | 36852 ft | 482 kts | 142° |
| 2026-05-05 00:32 | 7.61298 | 70.85782 | 36859 ft | 482 kts | 142° |
| 2026-05-05 00:33 | 7.56011 | 70.89955 | 36859 ft | 482 kts | 142° |
| 2026-05-05 00:33 | 7.50755 | 70.94102 | 36854 ft | 482 kts | 142° |
| 2026-05-05 00:34 | 7.46723 | 70.97279 | 36859 ft | 482 kts | 142° |
| 2026-05-05 00:34 | 7.41420 | 71.01449 | 36858 ft | 482 kts | 142° |
| 2026-05-05 00:35 | 7.36148 | 71.05594 | 36864 ft | 483 kts | 142° |
| 2026-05-05 00:35 | 7.30845 | 71.09764 | 36866 ft | 483 kts | 142° |
| 2026-05-05 00:36 | 7.25573 | 71.13910 | 36861 ft | 483 kts | 142° |
| 2026-05-05 00:36 | 7.20271 | 71.18078 | 36861 ft | 483 kts | 142° |
| 2026-05-05 00:37 | 7.14955 | 71.22255 | 36861 ft | 483 kts | 142° |
| 2026-05-05 00:37 | 7.09667 | 71.26409 | 36863 ft | 483 kts | 142° |
| 2026-05-05 00:38 | 7.04370 | 71.30569 | 36867 ft | 483 kts | 142° |
| 2026-05-05 00:38 | 6.99057 | 71.34741 | 36865 ft | 483 kts | 142° |
| 2026-05-05 00:39 | 6.93769 | 71.38891 | 36867 ft | 483 kts | 142° |
| 2026-05-05 00:39 | 6.88468 | 71.43050 | 36869 ft | 483 kts | 142° |
| 2026-05-05 00:40 | 6.83152 | 71.47220 | 36866 ft | 483 kts | 142° |
| 2026-05-05 00:40 | 6.77867 | 71.51364 | 36868 ft | 483 kts | 142° |
| 2026-05-05 00:41 | 6.72542 | 71.55539 | 36871 ft | 483 kts | 142° |
| 2026-05-05 00:41 | 6.67273 | 71.59669 | 36870 ft | 483 kts | 142° |
| 2026-05-05 00:42 | 6.61965 | 71.63828 | 36873 ft | 483 kts | 142° |
| 2026-05-05 00:42 | 6.56684 | 71.67965 | 36867 ft | 483 kts | 142° |
| 2026-05-05 00:43 | 6.51378 | 71.72121 | 36871 ft | 483 kts | 142° |
| 2026-05-05 00:43 | 6.46068 | 71.76278 | 36873 ft | 482 kts | 142° |
| 2026-05-05 00:44 | 6.40796 | 71.80406 | 36872 ft | 482 kts | 142° |
| 2026-05-05 00:44 | 6.36389 | 71.83857 | 36873 ft | 482 kts | 142° |
| 2026-05-05 00:45 | 6.31144 | 71.88071 | 36873 ft | 482 kts | 141° |
| 2026-05-05 00:45 | 6.25922 | 71.92313 | 36872 ft | 482 kts | 141° |
| 2026-05-05 00:46 | 6.19851 | 71.97228 | 36869 ft | 482 kts | 141° |
| 2026-05-05 00:46 | 6.15504 | 72.00737 | 36871 ft | 482 kts | 141° |
| 2026-05-05 00:47 | 6.10263 | 72.04965 | 36871 ft | 482 kts | 141° |
| 2026-05-05 00:47 | 6.05027 | 72.09124 | 36875 ft | 482 kts | 142° |
| 2026-05-05 00:48 | 5.99639 | 72.13161 | 36872 ft | 482 kts | 143° |
| 2026-05-05 00:48 | 5.94279 | 72.17144 | 36873 ft | 482 kts | 143° |
| 2026-05-05 00:49 | 5.88896 | 72.21178 | 36869 ft | 482 kts | 143° |
| 2026-05-05 00:49 | 5.83504 | 72.25239 | 36648 ft | 486 kts | 143° |
| 2026-05-05 00:49 | 5.80789 | 72.27286 | 36181 ft | 486 kts | 143° |
| 2026-05-05 00:50 | 5.78128 | 72.29293 | 35753 ft | 480 kts | 143° |
| 2026-05-05 00:50 | 5.75466 | 72.31299 | 35302 ft | 473 kts | 143° |
| 2026-05-05 00:50 | 5.72849 | 72.33271 | 34895 ft | 467 kts | 143° |
| 2026-05-05 00:50 | 5.70261 | 72.35220 | 34478 ft | 462 kts | 143° |
| 2026-05-05 00:51 | 5.67697 | 72.37152 | 34071 ft | 457 kts | 144° |
| 2026-05-05 00:51 | 5.65159 | 72.39062 | 33632 ft | 453 kts | 144° |
| 2026-05-05 00:51 | 5.62648 | 72.40952 | 33174 ft | 449 kts | 144° |
| 2026-05-05 00:51 | 5.60183 | 72.42807 | 32740 ft | 446 kts | 144° |
| 2026-05-05 00:52 | 5.57710 | 72.44668 | 32279 ft | 443 kts | 144° |
| 2026-05-05 00:52 | 5.55244 | 72.46524 | 31851 ft | 442 kts | 144° |
| 2026-05-05 00:52 | 5.52769 | 72.48386 | 31430 ft | 444 kts | 144° |
| 2026-05-05 00:52 | 5.50321 | 72.50228 | 31023 ft | 444 kts | 144° |
| 2026-05-05 00:53 | 5.47849 | 72.52087 | 30606 ft | 443 kts | 143° |
| 2026-05-05 00:53 | 5.45385 | 72.53941 | 30207 ft | 442 kts | 143° |
| 2026-05-05 00:53 | 5.42919 | 72.55795 | 29774 ft | 441 kts | 144° |
| 2026-05-05 00:53 | 5.40452 | 72.57651 | 29270 ft | 444 kts | 144° |
| 2026-05-05 00:54 | 5.37943 | 72.59537 | 28666 ft | 459 kts | 144° |
| 2026-05-05 00:54 | 5.35351 | 72.61484 | 28002 ft | 479 kts | 144° |
| 2026-05-05 00:54 | 5.32659 | 72.63508 | 27311 ft | 484 kts | 143° |
| 2026-05-05 00:54 | 5.29970 | 72.65530 | 26629 ft | 480 kts | 143° |
| 2026-05-05 00:55 | 5.27308 | 72.67532 | 25958 ft | 475 kts | 144° |
| 2026-05-05 00:55 | 5.24669 | 72.69517 | 25279 ft | 471 kts | 144° |
| 2026-05-05 00:55 | 5.22054 | 72.71483 | 24613 ft | 467 kts | 143° |
| 2026-05-05 00:55 | 5.19490 | 72.73409 | 23963 ft | 464 kts | 144° |
| 2026-05-05 00:56 | 5.16917 | 72.75343 | 23281 ft | 461 kts | 144° |
| 2026-05-05 00:56 | 5.14353 | 72.77269 | 22537 ft | 458 kts | 143° |
| 2026-05-05 00:56 | 5.11820 | 72.79171 | 21880 ft | 453 kts | 143° |
| 2026-05-05 00:56 | 5.09300 | 72.81064 | 21228 ft | 448 kts | 143° |
| 2026-05-05 00:57 | 5.06818 | 72.82927 | 20624 ft | 444 kts | 143° |
| 2026-05-05 00:57 | 5.04358 | 72.84775 | 20023 ft | 441 kts | 143° |
| 2026-05-05 00:57 | 5.01910 | 72.86613 | 19401 ft | 438 kts | 143° |
| 2026-05-05 00:57 | 4.99473 | 72.88443 | 18779 ft | 436 kts | 143° |
| 2026-05-05 00:58 | 4.97052 | 72.90260 | 18165 ft | 434 kts | 143° |
| 2026-05-05 00:58 | 4.94641 | 72.92070 | 17485 ft | 432 kts | 143° |
| 2026-05-05 00:58 | 4.92240 | 72.93873 | 16833 ft | 429 kts | 143° |
| 2026-05-05 00:58 | 4.89883 | 72.95642 | 16218 ft | 425 kts | 142° |
| 2026-05-05 00:59 | 4.87524 | 72.97412 | 15622 ft | 422 kts | 142° |
| 2026-05-05 00:59 | 4.85176 | 72.99174 | 15023 ft | 420 kts | 142° |
| 2026-05-05 00:59 | 4.82848 | 73.00921 | 14429 ft | 417 kts | 142° |
| 2026-05-05 00:59 | 4.80555 | 73.02641 | 13847 ft | 399 kts | 142° |
| 2026-05-05 01:00 | 4.78389 | 73.04265 | 13232 ft | 385 kts | 142° |
| 2026-05-05 01:00 | 4.76270 | 73.05855 | 12658 ft | 384 kts | 142° |
| 2026-05-05 01:00 | 4.74132 | 73.07461 | 12127 ft | 383 kts | 143° |
| 2026-05-05 01:00 | 4.72004 | 73.09058 | 11640 ft | 380 kts | 143° |
| 2026-05-05 01:01 | 4.69888 | 73.10645 | 11118 ft | 378 kts | 143° |
| 2026-05-05 01:01 | 4.67808 | 73.12205 | 10962 ft | 366 kts | 143° |
| 2026-05-05 01:01 | 4.65799 | 73.13711 | 10796 ft | 355 kts | 143° |
| 2026-05-05 01:01 | 4.63845 | 73.15176 | 10645 ft | 345 kts | 143° |
| 2026-05-05 01:02 | 4.61952 | 73.16595 | 10488 ft | 334 kts | 143° |
| 2026-05-05 01:02 | 4.60138 | 73.17958 | 10360 ft | 325 kts | 143° |
| 2026-05-05 01:02 | 4.58355 | 73.19295 | 10214 ft | 315 kts | 143° |
| 2026-05-05 01:02 | 4.56697 | 73.20668 | 10066 ft | 302 kts | 131° |
| 2026-05-05 01:03 | 4.55661 | 73.22465 | 9836 ft | 296 kts | 109° |
| 2026-05-05 01:03 | 4.55092 | 73.24436 | 9612 ft | 293 kts | 104° |
| 2026-05-05 01:03 | 4.54622 | 73.26435 | 9314 ft | 294 kts | 103° |
| 2026-05-05 01:03 | 4.54175 | 73.28429 | 8871 ft | 298 kts | 103° |
| 2026-05-05 01:04 | 4.53733 | 73.30450 | 8409 ft | 290 kts | 103° |
| 2026-05-05 01:04 | 4.52937 | 73.34223 | 7501 ft | 268 kts | 103° |
| 2026-05-05 01:04 | 4.52568 | 73.36028 | 7062 ft | 261 kts | 102° |
| 2026-05-05 01:05 | 4.52246 | 73.37811 | 6649 ft | 260 kts | 97° |
| 2026-05-05 01:05 | 4.52132 | 73.39644 | 6241 ft | 266 kts | 93° |
| 2026-05-05 01:05 | 4.52079 | 73.41516 | 5822 ft | 271 kts | 92° |
| 2026-05-05 01:05 | 4.52033 | 73.43439 | 5264 ft | 281 kts | 92° |
| 2026-05-05 01:06 | 4.51841 | 73.45371 | 4875 ft | 276 kts | 111° |
| 2026-05-05 01:06 | 4.50786 | 73.46907 | 4711 ft | 273 kts | 142° |
| 2026-05-05 01:06 | 4.49265 | 73.48184 | 4778 ft | 305 kts | 140° |
| 2026-05-05 01:06 | 4.47632 | 73.49743 | 4821 ft | 334 kts | 136° |
| 2026-05-05 01:07 | 4.46036 | 73.51389 | 4752 ft | 321 kts | 137° |
| 2026-05-05 01:07 | 4.44307 | 73.52630 | 4355 ft | 293 kts | 161° |
| 2026-05-05 01:07 | 4.42412 | 73.53043 | 4013 ft | 267 kts | 177° |
| 2026-05-05 01:07 | 4.40623 | 73.53111 | 3673 ft | 248 kts | 182° |
| 2026-05-05 01:08 | 4.38957 | 73.53098 | 3358 ft | 231 kts | 184° |
| 2026-05-05 01:08 | 4.37410 | 73.53089 | 3131 ft | 212 kts | 183° |
| 2026-05-05 01:08 | 4.36010 | 73.53088 | 2864 ft | 196 kts | 183° |
| 2026-05-05 01:08 | 4.34671 | 73.53089 | 2594 ft | 187 kts | 183° |
| 2026-05-05 01:09 | 4.33421 | 73.53090 | 2375 ft | 170 kts | 184° |
| 2026-05-05 01:09 | 4.32299 | 73.53091 | 2126 ft | 154 kts | 184° |
| 2026-05-05 01:09 | 4.31277 | 73.53092 | 1967 ft | 144 kts | 185° |
| 2026-05-05 01:09 | 4.30251 | 73.53091 | 1790 ft | 149 kts | 184° |
| 2026-05-05 01:10 | 4.29236 | 73.53093 | 1577 ft | 144 kts | 184° |
| 2026-05-05 01:10 | 4.28247 | 73.53092 | 1371 ft | 141 kts | 184° |
| 2026-05-05 01:10 | 4.27241 | 73.53096 | 1210 ft | 149 kts | 185° |
| 2026-05-05 01:10 | 4.26218 | 73.53101 | 974 ft | 147 kts | 184° |
| 2026-05-05 01:11 | 4.25219 | 73.53102 | 850 ft | 141 kts | 184° |
| 2026-05-05 01:11 | 4.24239 | 73.53098 | 668 ft | 144 kts | 183° |
| 2026-05-05 01:11 | 4.23225 | 73.53107 | 491 ft | 141 kts | 183° |
| 2026-05-05 01:11 | 4.22244 | 73.53105 | 295 ft | 145 kts | 182° |
| 2026-05-05 01:12 | 4.21234 | 73.53106 | 103 ft | 144 kts | 184° |
| 2026-05-05 01:12 | 4.20294 | 73.53102 | 22 ft | 125 kts | 182° |
| 2026-05-05 01:12 | 4.19549 | 73.53099 | 17 ft | 85 kts | 180° |
| 2026-05-05 01:12 | 4.19087 | 73.53100 | 17 ft | 50 kts | 180° |
| 2026-05-05 01:13 | 4.18772 | 73.53100 | 17 ft | 42 kts | 180° |
| 2026-05-05 01:13 | 4.18607 | 73.53099 | 17 ft | 11 kts | 180° |
| 2026-05-05 01:13 | 4.18551 | 73.53065 | 17 ft | 10 kts | 251° |
| 2026-05-05 01:13 | 4.18547 | 73.52995 | 17 ft | 10 kts | 268° |
| 2026-05-05 01:14 | 4.18523 | 73.52931 | 17 ft | 9 kts | 216° |
| 2026-05-05 01:14 | 4.18461 | 73.52927 | 19 ft | 9 kts | 178° |
| 2026-05-05 01:14 | 4.18375 | 73.52929 | 17 ft | 15 kts | 179° |
| 2026-05-05 01:14 | 4.18272 | 73.52931 | 17 ft | 15 kts | 179° |
| 2026-05-05 01:15 | 4.18172 | 73.52932 | 17 ft | 11 kts | 179° |
| 2026-05-05 01:15 | 4.18148 | 73.52931 | 17 ft | 1 kts | 188° |
| 2026-05-05 01:15 | 4.18136 | 73.52926 | 17 ft | 3 kts | 212° |
| 2026-05-05 01:15 | 4.18119 | 73.52888 | 17 ft | 7 kts | 231° |
| 2026-05-05 01:16 | 4.18083 | 73.52872 | 17 ft | 5 kts | 190° |
| 2026-05-05 01:16 | 4.18067 | 73.52864 | 17 ft | 2 kts | 230° |
| 2026-05-05 01:16 | 4.18064 | 73.52842 | 17 ft | 5 kts | 264° |
| 2026-05-05 01:16 | 4.18062 | 73.52809 | 17 ft | 5 kts | 268° |
| 2026-05-05 01:17 | 4.18061 | 73.52783 | 17 ft | 2 kts | 269° |
| 2026-05-05 01:17 | 4.18061 | 73.52781 | 17 ft | 0 kts | 269° |
| 2026-05-05 01:17 | 4.18061 | 73.52777 | 17 ft | 0 kts | 269° |
| 2026-05-05 01:17 | 4.18061 | 73.52776 | 17 ft | 1 kts | 269° |
| 2026-05-05 01:18 | 4.18061 | 73.52774 | 17 ft | 0 kts | 269° |